Time;durP1;ratioP1;P1;durP2;ratioP2;P2;SDS_P1;SDS_P2;PMS_P1;PMS_P2;Temp;Humidity;BMP_temperature;BMP_pressure;BME280_temperature;BME280_humidity;BME280_pressure;Samples;Min_cycle;Max_cycle;Signal;HPM_P1;HPM_P2
2024/01/12 00:00:30;;;;;;;28.88;5.93;;;6.60;99.90;;;;;;5114919;28;20024;-74
2024/01/12 00:02:56;;;;;;;24.67;5.53;;;6.60;99.90;;;;;;5114798;28;20453;-71
2024/01/12 00:05:22;;;;;;;26.55;4.53;;;6.70;99.90;;;;;;5114141;28;20089;-74
2024/01/12 00:07:47;;;;;;;15.90;3.95;;;6.60;99.90;;;;;;5096078;28;20031;-73
2024/01/12 00:10:13;;;;;;;2.35;2.13;;;6.70;99.90;;;;;;5114331;28;20035;-71
2024/01/12 00:12:39;;;;;;;10.18;2.22;;;6.70;99.90;;;;;;5114737;28;20031;-71
2024/01/12 00:15:05;;;;;;;0.90;0.90;;;6.60;99.90;;;;;;5113939;28;20020;-73
2024/01/12 00:17:32;;;;;;;1.25;1.25;;;6.60;99.90;;;;;;5113121;28;20053;-71
2024/01/12 00:19:57;;;;;;;0.80;0.80;;;6.70;99.90;;;;;;5114265;28;20072;-75
2024/01/12 00:22:23;;;;;;;17.25;3.17;;;6.70;99.90;;;;;;5114167;28;20418;-73
2024/01/12 00:24:49;;;;;;;14.88;3.15;;;6.70;99.90;;;;;;5113834;28;20062;-72
2024/01/12 00:27:14;;;;;;;8.32;2.35;;;6.70;99.90;;;;;;5114308;28;20072;-74
2024/01/12 00:29:40;;;;;;;28.48;5.47;;;6.70;99.90;;;;;;5113963;28;20039;-73
2024/01/12 00:32:06;;;;;;;27.17;6.10;;;6.70;99.90;;;;;;5095679;28;20496;-72
2024/01/12 00:34:32;;;;;;;29.02;6.38;;;6.70;99.90;;;;;;5113932;28;20369;-74
2024/01/12 00:36:58;;;;;;;28.23;5.78;;;6.70;99.90;;;;;;5113845;28;20024;-72
2024/01/12 00:39:23;;;;;;;27.10;6.15;;;6.70;99.90;;;;;;5113917;28;20027;-72
2024/01/12 00:41:50;;;;;;;28.90;6.70;;;6.60;99.90;;;;;;5113738;28;20019;-73
2024/01/12 00:44:18;;;;;;;26.95;5.93;;;6.60;99.90;;;;;;5113910;28;20508;-72
2024/01/12 00:46:50;;;;;;;29.60;6.68;;;6.60;99.90;;;;;;5113289;28;20487;-74
2024/01/12 00:49:17;;;;;;;24.13;5.65;;;6.60;99.90;;;;;;5113640;28;20043;-73
2024/01/12 00:51:43;;;;;;;30.65;6.53;;;6.70;99.90;;;;;;5113626;28;20020;-73
2024/01/12 00:54:09;;;;;;;28.02;5.72;;;6.60;99.90;;;;;;5113472;28;20033;-71
2024/01/12 00:56:34;;;;;;;27.42;5.78;;;6.60;99.90;;;;;;5113879;28;20028;-73
2024/01/12 00:59:00;;;;;;;20.27;5.45;;;6.60;99.90;;;;;;5113651;28;20358;-71
2024/01/12 01:01:25;;;;;;;23.25;5.32;;;6.60;99.90;;;;;;5113000;28;20016;-71
2024/01/12 01:03:51;;;;;;;21.92;5.18;;;6.70;99.90;;;;;;5113127;28;20106;-71
2024/01/12 01:06:16;;;;;;;26.73;6.05;;;6.70;99.90;;;;;;5112797;28;20475;-74
2024/01/12 01:08:45;;;;;;;29.98;5.97;;;6.70;99.90;;;;;;5112838;28;20071;-73
2024/01/12 01:11:11;;;;;;;27.58;6.40;;;6.70;99.90;;;;;;5113006;28;20053;-71
2024/01/12 01:13:37;;;;;;;27.92;6.60;;;6.60;99.90;;;;;;5113150;28;20027;-72
2024/01/12 01:16:04;;;;;;;21.58;5.38;;;6.60;99.90;;;;;;5113199;28;20023;-71
2024/01/12 01:18:30;;;;;;;17.70;4.43;;;6.60;99.90;;;;;;5113047;28;20030;-73
2024/01/12 01:20:57;;;;;;;22.15;5.95;;;6.60;99.90;;;;;;5112843;28;20055;-74
2024/01/12 01:23:22;;;;;;;26.15;6.45;;;6.60;99.90;;;;;;5113070;28;20030;-74
2024/01/12 01:25:49;;;;;;;23.38;6.20;;;6.60;99.90;;;;;;5113051;28;20035;-75
2024/01/12 01:28:16;;;;;;;22.77;6.50;;;6.60;99.90;;;;;;5112265;28;20522;-73
2024/01/12 01:30:41;;;;;;;22.15;6.20;;;6.70;99.90;;;;;;5112462;28;20040;-72
2024/01/12 01:33:07;;;;;;;19.48;5.80;;;6.70;99.90;;;;;;5112754;28;20020;-72
2024/01/12 01:35:33;;;;;;;27.63;6.00;;;6.70;99.90;;;;;;5113129;28;20020;-71
2024/01/12 01:37:59;;;;;;;23.10;5.65;;;6.70;99.90;;;;;;5112840;28;20031;-73
2024/01/12 01:40:25;;;;;;;26.25;5.72;;;6.70;99.90;;;;;;5112491;28;20020;-74
2024/01/12 01:42:50;;;;;;;23.35;5.90;;;6.70;99.90;;;;;;5112674;28;20027;-74
2024/01/12 01:45:16;;;;;;;22.38;5.25;;;6.70;99.90;;;;;;5112573;28;20022;-72
2024/01/12 01:47:42;;;;;;;23.98;5.82;;;6.70;99.90;;;;;;5112761;28;20024;-74
2024/01/12 01:50:10;;;;;;;28.77;6.78;;;6.70;99.90;;;;;;5112837;28;20044;-72
2024/01/12 01:52:36;;;;;;;22.92;6.05;;;6.70;99.90;;;;;;5112648;28;20466;-73
2024/01/12 01:55:02;;;;;;;20.20;5.25;;;6.60;99.90;;;;;;5112713;28;20457;-73
2024/01/12 01:57:28;;;;;;;16.52;5.43;;;6.70;99.90;;;;;;5112842;28;20027;-71
2024/01/12 01:59:54;;;;;;;29.02;6.13;;;6.70;99.90;;;;;;5094093;28;20024;-74
2024/01/12 02:02:21;;;;;;;21.00;5.68;;;6.60;99.90;;;;;;5112566;28;20036;-71
2024/01/12 02:04:50;;;;;;;22.35;5.75;;;6.60;99.90;;;;;;5094037;28;20346;-72
2024/01/12 02:07:16;;;;;;;16.02;5.00;;;6.60;99.90;;;;;;5112648;28;20613;-73
2024/01/12 02:09:41;;;;;;;18.10;5.20;;;6.60;99.90;;;;;;5112224;28;20027;-74
2024/01/12 02:12:07;;;;;;;24.50;6.03;;;6.60;99.90;;;;;;5112713;28;20020;-71
2024/01/12 02:14:33;;;;;;;20.20;5.40;;;6.60;99.90;;;;;;5112048;28;20035;-72
2024/01/12 02:16:58;;;;;;;21.98;5.28;;;6.60;99.90;;;;;;5112375;28;20126;-73
2024/01/12 02:19:24;;;;;;;17.67;5.55;;;6.60;99.90;;;;;;5094204;28;20110;-74
2024/01/12 02:21:49;;;;;;;18.48;6.18;;;6.70;99.90;;;;;;5112439;28;20024;-74
2024/01/12 02:24:15;;;;;;;14.50;4.18;;;6.70;99.90;;;;;;5112437;28;20816;-72
2024/01/12 02:26:41;;;;;;;1.30;1.30;;;6.70;99.90;;;;;;5112538;28;20036;-73
2024/01/12 02:29:07;;;;;;;1.25;1.25;;;6.70;99.90;;;;;;5111070;28;20031;-71
2024/01/12 02:31:33;;;;;;;1.20;1.20;;;6.70;99.90;;;;;;5112130;28;20107;-71
2024/01/12 02:33:58;;;;;;;1.20;1.20;;;6.70;99.90;;;;;;5112261;28;20028;-72
2024/01/12 02:36:27;;;;;;;1.20;1.20;;;6.70;99.90;;;;;;5112545;28;20249;-72
2024/01/12 02:38:54;;;;;;;1.33;1.33;;;6.80;99.90;;;;;;5112426;28;20103;-74
2024/01/12 02:41:20;;;;;;;1.40;1.40;;;6.80;99.90;;;;;;5114100;28;20016;-73
2024/01/12 02:43:46;;;;;;;1.38;1.38;;;6.80;99.90;;;;;;5115887;28;20026;-70
2024/01/12 02:46:11;;;;;;;1.10;1.10;;;6.80;99.90;;;;;;5116040;28;20027;-71
2024/01/12 02:48:37;;;;;;;1.10;1.10;;;6.80;99.90;;;;;;5115993;28;20035;-72
2024/01/12 02:51:02;;;;;;;1.30;1.30;;;6.80;99.90;;;;;;5097222;28;20027;-72
2024/01/12 02:53:28;;;;;;;1.20;1.20;;;6.80;99.90;;;;;;5115681;28;20024;-75
2024/01/12 02:55:54;;;;;;;1.38;1.35;;;6.80;99.90;;;;;;5115519;28;20031;-73
2024/01/12 02:58:19;;;;;;;1.55;1.48;;;6.80;99.90;;;;;;5097320;28;20028;-74
2024/01/12 03:00:45;;;;;;;1.10;1.10;;;6.80;99.90;;;;;;5097475;28;20027;-72
2024/01/12 03:03:10;;;;;;;2.55;2.45;;;6.80;99.90;;;;;;5115401;28;20028;-71
2024/01/12 03:05:36;;;;;;;1.10;1.10;;;6.80;99.90;;;;;;5115222;28;20051;-72
2024/01/12 03:08:01;;;;;;;8.32;3.78;;;6.80;99.90;;;;;;5115483;28;20034;-74
2024/01/12 03:10:27;;;;;;;3.15;1.88;;;6.80;99.90;;;;;;5115299;28;20435;-73
2024/01/12 03:12:53;;;;;;;21.08;5.80;;;6.80;99.90;;;;;;5115205;28;20031;-75
2024/01/12 03:15:19;;;;;;;18.08;5.50;;;6.80;99.90;;;;;;5115263;28;20067;-73
2024/01/12 03:17:44;;;;;;;23.23;5.57;;;6.70;99.90;;;;;;5115617;28;20023;-72
2024/01/12 03:20:10;;;;;;;22.27;5.78;;;6.70;99.90;;;;;;5115166;28;20049;-74
2024/01/12 03:22:36;;;;;;;20.95;6.35;;;6.70;99.90;;;;;;5115220;28;20389;-73
2024/01/12 03:25:02;;;;;;;23.55;6.13;;;6.70;99.90;;;;;;5115478;28;20100;-71
2024/01/12 03:27:28;;;;;;;16.70;5.43;;;6.70;99.90;;;;;;5115191;28;20085;-71
2024/01/12 03:29:54;;;;;;;23.15;5.68;;;6.70;99.90;;;;;;5097027;28;20138;-71
2024/01/12 03:32:22;;;;;;;23.13;6.03;;;6.70;99.90;;;;;;5115317;28;20055;-74
2024/01/12 03:34:48;;;;;;;21.60;5.95;;;6.70;99.90;;;;;;5114939;28;20038;-73
2024/01/12 03:37:13;;;;;;;22.17;5.88;;;6.60;99.90;;;;;;5115085;28;20027;-73
2024/01/12 03:39:39;;;;;;;19.27;5.28;;;6.70;99.90;;;;;;5115791;28;20032;-73
2024/01/12 03:42:05;;;;;;;18.15;5.20;;;6.70;99.90;;;;;;5115223;28;20369;-74
2024/01/12 03:44:30;;;;;;;19.13;5.10;;;6.70;99.90;;;;;;5114939;28;20612;-73
2024/01/12 03:46:56;;;;;;;20.20;6.13;;;6.70;99.90;;;;;;5096658;28;20020;-72
2024/01/12 03:49:25;;;;;;;17.63;5.82;;;6.70;99.90;;;;;;5114622;28;20047;-73
2024/01/12 03:51:57;;;;;;;26.05;5.95;;;6.70;99.90;;;;;;5114408;28;20082;-73
2024/01/12 03:54:24;;;;;;;18.45;5.47;;;6.70;99.90;;;;;;5114671;28;20039;-74
2024/01/12 03:56:50;;;;;;;22.05;5.97;;;6.70;99.90;;;;;;5114654;28;20130;-72
2024/01/12 03:59:16;;;;;;;18.90;5.85;;;6.70;99.90;;;;;;5096429;28;20059;-73
2024/01/12 04:01:47;;;;;;;20.33;5.63;;;6.70;99.90;;;;;;5114733;28;20084;-70
2024/01/12 04:04:13;;;;;;;21.83;5.63;;;6.70;99.90;;;;;;5096423;28;20030;-74
2024/01/12 04:06:42;;;;;;;21.52;5.78;;;6.70;99.90;;;;;;5114575;28;20044;-74
2024/01/12 04:09:12;;;;;;;21.52;6.32;;;6.70;99.90;;;;;;5113972;28;20389;-71
2024/01/12 04:11:38;;;;;;;24.63;6.72;;;6.70;99.90;;;;;;5114661;28;20051;-71
2024/01/12 04:14:04;;;;;;;24.95;6.35;;;6.70;99.90;;;;;;5096258;28;20027;-73
2024/01/12 04:16:30;;;;;;;21.10;5.72;;;6.70;99.90;;;;;;5113871;28;20484;-73
2024/01/12 04:18:56;;;;;;;21.30;5.68;;;6.70;99.90;;;;;;5113586;28;20102;-75
2024/01/12 04:21:21;;;;;;;20.33;5.72;;;6.70;99.90;;;;;;5114135;28;20118;-74
2024/01/12 04:23:47;;;;;;;15.88;5.55;;;6.70;99.90;;;;;;5095781;28;20476;-73
2024/01/12 04:26:13;;;;;;;18.42;6.07;;;6.70;99.90;;;;;;5114407;28;20450;-73
2024/01/12 04:28:39;;;;;;;22.10;5.10;;;6.70;99.90;;;;;;5113829;28;20028;-73
2024/01/12 04:31:05;;;;;;;21.95;5.80;;;6.70;99.90;;;;;;5114072;28;20088;-74
2024/01/12 04:33:32;;;;;;;20.98;5.70;;;6.70;99.90;;;;;;5095931;28;20106;-73
2024/01/12 04:35:57;;;;;;;19.25;5.38;;;6.80;99.90;;;;;;5114136;28;20020;-72
2024/01/12 04:38:25;;;;;;;13.48;5.45;;;6.80;99.90;;;;;;5114026;28;20038;-73
2024/01/12 04:40:51;;;;;;;18.88;6.05;;;6.80;99.90;;;;;;5114033;28;20033;-74
2024/01/12 04:43:16;;;;;;;18.70;5.53;;;6.80;99.90;;;;;;5114103;28;20491;-73
2024/01/12 04:45:42;;;;;;;21.88;5.82;;;6.80;99.90;;;;;;5113785;28;20070;-70
2024/01/12 04:48:07;;;;;;;17.95;5.38;;;6.80;99.90;;;;;;5114093;28;20036;-74
2024/01/12 04:50:33;;;;;;;24.60;6.45;;;6.80;99.90;;;;;;5113976;28;20552;-73
2024/01/12 04:52:58;;;;;;;5.93;2.65;;;6.80;99.90;;;;;;5113688;28;20388;-74
2024/01/12 04:55:25;;;;;;;1.30;1.30;;;6.80;99.90;;;;;;5113787;28;20027;-74
2024/01/12 04:57:50;;;;;;;1.27;1.27;;;6.80;99.90;;;;;;5113825;28;20034;-71
2024/01/12 05:00:17;;;;;;;4.70;2.63;;;6.90;99.90;;;;;;5095391;28;20023;-72
2024/01/12 05:02:43;;;;;;;1.30;1.30;;;6.90;99.90;;;;;;5113758;28;20476;-74
2024/01/12 05:05:09;;;;;;;1.63;1.50;;;6.90;99.90;;;;;;5112931;28;20128;-74
2024/01/12 05:07:34;;;;;;;1.10;1.10;;;7.00;99.90;;;;;;5113236;28;20491;-72
2024/01/12 05:10:00;;;;;;;1.20;1.20;;;7.00;99.90;;;;;;5113599;28;20099;-72
2024/01/12 05:12:26;;;;;;;17.85;4.05;;;7.00;99.90;;;;;;5112886;28;20032;-74
2024/01/12 05:14:52;;;;;;;1.10;1.10;;;7.00;99.90;;;;;;5113257;28;20457;-75
2024/01/12 05:17:18;;;;;;;3.10;1.58;;;7.00;99.90;;;;;;5113555;28;20023;-75
2024/01/12 05:19:44;;;;;;;20.73;5.85;;;7.00;99.90;;;;;;5113188;28;20027;-73
2024/01/12 05:22:09;;;;;;;14.70;4.18;;;7.00;99.90;;;;;;5094909;28;20046;-75
2024/01/12 05:24:35;;;;;;;16.25;6.03;;;7.00;99.90;;;;;;5094972;28;20094;-72
2024/01/12 05:27:01;;;;;;;22.42;6.00;;;7.00;99.90;;;;;;5113118;28;20441;-72
2024/01/12 05:29:26;;;;;;;20.60;5.80;;;7.00;99.90;;;;;;5112904;28;20031;-74
2024/01/12 05:31:52;;;;;;;21.55;5.40;;;7.00;99.90;;;;;;5113364;28;20024;-71
2024/01/12 05:34:17;;;;;;;19.95;5.88;;;7.00;99.90;;;;;;5112545;28;20345;-73
2024/01/12 05:36:43;;;;;;;19.38;6.28;;;7.00;99.90;;;;;;5112898;28;20106;-76
2024/01/12 05:39:09;;;;;;;14.60;5.60;;;6.90;99.90;;;;;;5112958;28;20031;-71
2024/01/12 05:41:35;;;;;;;18.77;6.55;;;7.00;99.90;;;;;;5112354;28;20028;-72
2024/01/12 05:44:01;;;;;;;19.85;6.13;;;7.00;99.90;;;;;;5112723;28;20034;-70
2024/01/12 05:46:27;;;;;;;20.15;5.70;;;7.00;99.90;;;;;;5112988;28;20133;-73
2024/01/12 05:48:53;;;;;;;23.10;6.25;;;7.00;99.90;;;;;;5112858;28;20019;-74
2024/01/12 05:51:19;;;;;;;19.25;6.00;;;7.00;99.90;;;;;;5112532;28;20031;-72
2024/01/12 05:53:44;;;;;;;24.45;6.45;;;7.00;99.90;;;;;;5110932;28;20031;-75
2024/01/12 05:56:10;;;;;;;21.38;5.78;;;7.00;99.90;;;;;;5112781;28;20032;-74
2024/01/12 05:58:35;;;;;;;21.08;6.40;;;7.00;99.90;;;;;;5112964;28;20031;-75
2024/01/12 06:01:01;;;;;;;22.48;5.63;;;6.90;99.90;;;;;;5112116;28;20096;-72
2024/01/12 06:03:28;;;;;;;19.02;5.78;;;7.00;99.90;;;;;;5112244;28;20469;-74
2024/01/12 06:05:57;;;;;;;20.98;5.75;;;7.00;99.90;;;;;;5111664;28;20101;-71
2024/01/12 06:08:24;;;;;;;24.70;6.55;;;6.90;99.90;;;;;;5111735;28;20063;-74
2024/01/12 06:10:50;;;;;;;21.77;6.30;;;6.90;99.90;;;;;;5112159;28;20370;-70
2024/01/12 06:13:16;;;;;;;21.27;5.43;;;6.90;99.90;;;;;;5112695;28;20046;-73
2024/01/12 06:15:42;;;;;;;20.65;5.65;;;6.90;99.90;;;;;;5113224;28;20027;-71
2024/01/12 06:18:08;;;;;;;22.92;6.18;;;6.90;99.90;;;;;;5116525;28;20368;-72
2024/01/12 06:20:34;;;;;;;23.83;6.38;;;6.90;99.90;;;;;;5116813;28;20088;-71
2024/01/12 06:23:00;;;;;;;22.90;6.47;;;6.90;99.90;;;;;;5116028;28;20465;-72
2024/01/12 06:25:27;;;;;;;19.67;5.80;;;6.90;99.90;;;;;;5116574;28;20031;-73
2024/01/12 06:27:53;;;;;;;23.67;5.80;;;6.90;99.90;;;;;;5116242;28;20734;-74
2024/01/12 06:30:19;;;;;;;25.85;6.07;;;6.90;99.90;;;;;;5097466;28;20396;-74
2024/01/12 06:32:45;;;;;;;19.17;5.32;;;6.90;99.90;;;;;;5115233;28;20047;-72
2024/01/12 06:35:11;;;;;;;18.75;5.20;;;6.80;99.90;;;;;;5115963;28;20062;-73
2024/01/12 06:37:37;;;;;;;20.42;5.25;;;6.90;99.90;;;;;;5105726;28;20020;-71
2024/01/12 06:40:04;;;;;;;20.40;5.22;;;6.90;99.90;;;;;;5115042;28;20031;-73
2024/01/12 06:42:31;;;;;;;19.00;5.43;;;6.80;99.90;;;;;;5115715;28;20020;-74
2024/01/12 06:44:57;;;;;;;21.63;5.63;;;6.80;99.90;;;;;;5116634;28;20031;-72
2024/01/12 06:47:22;;;;;;;22.50;5.22;;;6.80;99.90;;;;;;5112609;28;20640;-72
2024/01/12 06:49:48;;;;;;;18.38;5.18;;;6.80;99.90;;;;;;5114482;28;20058;-73
2024/01/12 06:52:14;;;;;;;21.58;5.07;;;6.80;99.90;;;;;;5097716;28;20051;-71
2024/01/12 06:54:43;;;;;;;22.60;4.30;;;6.90;99.90;;;;;;5115996;28;20055;-73
2024/01/12 06:57:09;;;;;;;18.52;3.97;;;6.90;99.90;;;;;;5115013;28;20389;-71
2024/01/12 06:59:35;;;;;;;17.67;4.10;;;6.80;99.90;;;;;;5116074;28;20027;-72
2024/01/12 07:02:00;;;;;;;23.65;4.65;;;6.90;99.90;;;;;;5115838;28;20469;-74
2024/01/12 07:04:26;;;;;;;19.65;4.15;;;6.90;99.90;;;;;;5115618;28;20034;-71
2024/01/12 07:06:52;;;;;;;18.25;4.20;;;6.90;99.90;;;;;;5115212;28;20047;-75
2024/01/12 07:09:18;;;;;;;17.83;3.53;;;6.90;99.90;;;;;;5113431;28;21433;-74
2024/01/12 07:11:45;;;;;;;26.98;4.18;;;6.90;99.90;;;;;;5115408;28;20055;-72
2024/01/12 07:14:11;;;;;;;20.90;4.55;;;7.00;99.90;;;;;;5115613;28;20035;-73
2024/01/12 07:16:37;;;;;;;0.65;0.65;;;6.90;99.90;;;;;;5115313;28;20016;-74
2024/01/12 07:19:03;;;;;;;22.67;4.32;;;6.90;99.90;;;;;;5097160;28;20527;-74
2024/01/12 07:21:29;;;;;;;23.83;4.45;;;6.90;99.90;;;;;;5097117;28;20032;-72
2024/01/12 07:23:54;;;;;;;23.80;4.70;;;6.90;99.90;;;;;;5115578;28;20023;-73
2024/01/12 07:26:20;;;;;;;24.42;3.90;;;6.90;99.90;;;;;;5114965;28;20028;-74
2024/01/12 07:28:46;;;;;;;18.02;3.70;;;6.90;99.90;;;;;;5115684;28;20457;-74
2024/01/12 07:31:11;;;;;;;28.75;3.85;;;6.90;99.90;;;;;;5114868;28;20090;-73
2024/01/12 07:33:37;;;;;;;19.65;3.85;;;6.90;99.90;;;;;;5115322;28;20081;-72
2024/01/12 07:36:03;;;;;;;20.02;3.55;;;7.00;99.90;;;;;;5115398;28;20517;-72
2024/01/12 07:38:29;;;;;;;21.23;3.83;;;7.00;99.90;;;;;;5114892;28;20491;-72
2024/01/12 07:40:54;;;;;;;17.08;3.35;;;7.00;99.90;;;;;;5115195;28;20020;-72
2024/01/12 07:43:20;;;;;;;22.00;3.13;;;7.00;99.90;;;;;;5114865;28;20034;-73
2024/01/12 07:45:45;;;;;;;22.63;3.67;;;7.00;99.90;;;;;;5112951;28;20042;-72
2024/01/12 07:48:11;;;;;;;0.57;0.55;;;7.00;99.90;;;;;;5114733;28;20024;-73
2024/01/12 07:50:36;;;;;;;2.20;0.68;;;7.00;99.90;;;;;;5114946;28;20032;-75
2024/01/12 07:53:02;;;;;;;16.13;3.20;;;7.00;99.90;;;;;;5115046;28;20032;-74
2024/01/12 07:55:28;;;;;;;17.33;3.97;;;7.00;99.90;;;;;;5114506;28;20030;-74
2024/01/12 07:57:54;;;;;;;19.42;3.10;;;7.00;99.90;;;;;;5115095;28;20015;-74
2024/01/12 08:00:20;;;;;;;18.42;4.03;;;7.00;99.90;;;;;;5097418;28;20031;-72
2024/01/12 08:02:45;;;;;;;24.77;4.05;;;7.00;99.90;;;;;;5114472;28;20385;-74
2024/01/12 08:05:11;;;;;;;20.30;4.22;;;7.00;99.90;;;;;;5113385;28;20122;-72
2024/01/12 08:07:37;;;;;;;15.75;4.10;;;7.00;99.90;;;;;;5114440;28;20024;-72
2024/01/12 08:10:03;;;;;;;22.77;3.80;;;7.00;99.90;;;;;;5114254;28;20481;-72
2024/01/12 08:12:29;;;;;;;20.38;3.83;;;7.00;99.90;;;;;;5115067;28;20068;-75
2024/01/12 08:14:55;;;;;;;19.60;3.53;;;7.10;99.90;;;;;;5114212;28;20403;-74
2024/01/12 08:17:20;;;;;;;17.17;3.20;;;7.10;99.90;;;;;;5114514;28;20036;-75
2024/01/12 08:19:47;;;;;;;17.52;3.20;;;7.10;99.90;;;;;;5114154;28;20452;-74
2024/01/12 08:22:13;;;;;;;22.00;3.45;;;7.00;99.90;;;;;;5114275;28;20016;-74
2024/01/12 08:24:39;;;;;;;20.20;4.00;;;7.10;99.90;;;;;;5114380;28;20441;-73
2024/01/12 08:27:05;;;;;;;17.60;4.10;;;7.10;99.90;;;;;;5113744;28;20023;-72
2024/01/12 08:29:30;;;;;;;18.90;3.00;;;7.10;99.90;;;;;;5095336;28;20036;-72
2024/01/12 08:31:58;;;;;;;18.85;3.15;;;7.10;99.90;;;;;;5114111;28;20024;-73
2024/01/12 08:34:24;;;;;;;16.40;2.88;;;7.10;99.90;;;;;;5114051;28;20019;-75
2024/01/12 08:36:51;;;;;;;18.65;3.75;;;7.10;99.90;;;;;;5113743;28;20023;-72
2024/01/12 08:39:17;;;;;;;17.40;3.05;;;7.10;99.90;;;;;;5094869;28;20388;-74
2024/01/12 08:41:43;;;;;;;18.20;3.67;;;7.10;99.90;;;;;;5114145;28;20026;-72
2024/01/12 08:44:10;;;;;;;15.00;3.28;;;7.10;99.90;;;;;;5094987;28;20455;-73
2024/01/12 08:46:35;;;;;;;15.35;3.20;;;7.10;99.90;;;;;;5095358;28;20419;-74
2024/01/12 08:49:01;;;;;;;14.40;2.85;;;7.10;99.90;;;;;;5113933;28;20028;-70
2024/01/12 08:51:26;;;;;;;23.13;3.88;;;7.10;99.90;;;;;;5113607;28;20027;-74
2024/01/12 08:53:52;;;;;;;18.17;3.35;;;7.10;99.90;;;;;;5113545;28;20031;-72
2024/01/12 08:56:18;;;;;;;16.88;3.00;;;7.20;99.90;;;;;;5113496;28;20081;-72
2024/01/12 08:58:43;;;;;;;19.33;3.00;;;7.20;99.90;;;;;;5113209;28;20026;-71
2024/01/12 09:01:09;;;;;;;13.63;2.67;;;7.20;99.90;;;;;;5113566;28;20024;-73
2024/01/12 09:03:34;;;;;;;18.50;3.50;;;7.20;99.90;;;;;;5113543;28;20369;-73
2024/01/12 09:06:00;;;;;;;19.92;3.22;;;7.20;99.90;;;;;;5112813;28;20057;-73
2024/01/12 09:08:28;;;;;;;17.55;3.05;;;7.30;99.90;;;;;;5113704;28;20133;-74
2024/01/12 09:10:53;;;;;;;15.48;3.38;;;7.30;99.90;;;;;;5113096;28;20454;-74
2024/01/12 09:13:19;;;;;;;18.75;3.40;;;7.30;99.90;;;;;;5112807;28;20055;-72
2024/01/12 09:15:44;;;;;;;16.40;2.95;;;7.30;99.90;;;;;;5112998;28;20027;-73
2024/01/12 09:18:10;;;;;;;22.00;4.13;;;7.30;99.90;;;;;;5112898;28;20051;-72
2024/01/12 09:20:35;;;;;;;18.40;3.30;;;7.30;99.90;;;;;;5113147;28;20015;-73
2024/01/12 09:23:01;;;;;;;18.98;3.55;;;7.30;99.90;;;;;;5113006;28;20027;-74
2024/01/12 09:25:27;;;;;;;19.17;3.28;;;7.40;99.90;;;;;;5113278;28;20140;-72
2024/01/12 09:27:52;;;;;;;18.38;3.60;;;7.50;99.90;;;;;;5112364;28;20026;-75
2024/01/12 09:30:19;;;;;;;15.52;3.03;;;7.60;99.90;;;;;;5112650;28;20031;-72
2024/01/12 09:32:44;;;;;;;17.63;2.85;;;7.60;99.90;;;;;;5112770;28;20020;-74
2024/01/12 09:35:10;;;;;;;17.15;2.88;;;7.70;99.90;;;;;;5112996;28;20110;-72
2024/01/12 09:37:36;;;;;;;14.68;2.65;;;7.70;99.90;;;;;;5112571;28;20031;-73
2024/01/12 09:40:02;;;;;;;13.27;3.05;;;7.80;99.90;;;;;;5111882;28;20035;-71
2024/01/12 09:42:31;;;;;;;17.15;2.80;;;7.80;99.90;;;;;;5111673;28;20492;-72
2024/01/12 09:44:58;;;;;;;12.10;2.60;;;7.90;99.90;;;;;;5093693;28;20032;-73
2024/01/12 09:47:25;;;;;;;14.07;2.50;;;8.00;99.90;;;;;;5093966;28;20016;-74
2024/01/12 09:49:52;;;;;;;15.25;3.00;;;8.00;99.90;;;;;;5112815;28;20028;-74
2024/01/12 09:52:18;;;;;;;19.23;2.95;;;8.10;99.90;;;;;;5094443;28;20435;-75
2024/01/12 09:54:44;;;;;;;15.60;2.72;;;8.20;99.90;;;;;;5112595;28;20020;-74
2024/01/12 09:57:11;;;;;;;0.20;0.20;;;8.30;99.90;;;;;;5109454;28;20060;-74
2024/01/12 09:59:38;;;;;;;0.28;0.28;;;8.30;99.90;;;;;;5111968;28;20039;-73
2024/01/12 10:02:08;;;;;;;0.20;0.20;;;8.40;99.90;;;;;;5112749;28;20016;-73
2024/01/12 10:04:33;;;;;;;0.55;0.55;;;8.40;99.90;;;;;;5112399;28;20032;-72
2024/01/12 10:06:59;;;;;;;2.83;0.50;;;8.40;99.90;;;;;;5112549;28;20400;-72
2024/01/12 10:09:26;;;;;;;0.32;0.32;;;8.40;99.90;;;;;;5112086;28;20063;-75
2024/01/12 10:11:53;;;;;;;1.80;0.20;;;8.30;99.90;;;;;;5112430;28;20400;-74
2024/01/12 10:14:20;;;;;;;6.75;1.50;;;8.30;99.90;;;;;;5112521;28;20016;-74
2024/01/12 10:16:53;;;;;;;16.35;3.17;;;8.30;99.90;;;;;;5112500;28;20027;-73
2024/01/12 10:19:18;;;;;;;14.77;3.00;;;8.30;99.90;;;;;;5112217;28;20023;-74
2024/01/12 10:21:44;;;;;;;11.63;2.17;;;8.30;99.90;;;;;;5112687;28;20444;-72
2024/01/12 10:24:09;;;;;;;12.40;2.35;;;8.30;99.90;;;;;;5112963;28;20023;-75
2024/01/12 10:26:35;;;;;;;16.10;2.83;;;8.30;99.90;;;;;;5112511;28;20100;-73
2024/01/12 10:29:04;;;;;;;15.15;2.58;;;8.40;99.90;;;;;;5112232;28;20019;-73
2024/01/12 10:31:30;;;;;;;11.65;2.50;;;8.40;99.90;;;;;;5113740;28;20020;-72
2024/01/12 10:34:00;;;;;;;12.90;2.65;;;8.50;99.90;;;;;;5093964;28;20023;-73
2024/01/12 10:36:30;;;;;;;14.43;2.25;;;8.60;99.90;;;;;;5112435;28;20100;-74
2024/01/12 10:38:58;;;;;;;18.08;3.00;;;8.60;99.90;;;;;;5094161;28;20106;-71
2024/01/12 10:41:25;;;;;;;15.60;2.85;;;8.50;99.90;;;;;;5111973;28;20068;-73
2024/01/12 10:43:53;;;;;;;15.20;2.40;;;8.40;99.90;;;;;;5093914;28;20119;-73
2024/01/12 10:46:37;;;;;;;10.65;2.47;;;8.30;99.90;;;;;;5112111;28;20024;-71
2024/01/12 10:49:25;;;;;;;9.57;2.55;;;8.20;99.90;;;;;;5112224;28;20097;-74
2024/01/12 10:52:00;;;;;;;16.05;3.20;;;8.10;99.90;;;;;;5100369;28;20115;-71
2024/01/12 10:54:32;;;;;;;17.23;3.45;;;8.00;99.90;;;;;;5111644;28;20097;-73
2024/01/12 10:56:59;;;;;;;15.25;3.03;;;8.10;99.90;;;;;;5109259;28;20027;-74
2024/01/12 10:59:25;;;;;;;14.25;2.95;;;8.10;99.90;;;;;;5111456;28;20070;-74
2024/01/12 11:01:52;;;;;;;18.95;3.15;;;8.10;99.90;;;;;;5113009;28;20019;-72
2024/01/12 11:04:19;;;;;;;13.65;2.53;;;8.10;99.90;;;;;;5114866;28;20034;-71
2024/01/12 11:06:48;;;;;;;8.30;2.03;;;8.20;99.90;;;;;;5112835;28;20043;-72
2024/01/12 11:09:17;;;;;;;3.55;2.17;;;8.20;99.90;;;;;;5115892;28;20028;-74
2024/01/12 11:11:50;;;;;;;1.55;0.57;;;8.20;99.90;;;;;;5102301;28;20032;-73
2024/01/12 11:14:16;;;;;;;0.30;0.30;;;8.20;99.90;;;;;;5114420;28;20028;-74
2024/01/12 11:16:42;;;;;;;3.33;1.30;;;8.20;99.90;;;;;;5114993;28;20043;-71
2024/01/12 11:19:12;;;;;;;9.88;2.17;;;8.10;99.90;;;;;;5115104;28;20035;-73
2024/01/12 11:21:40;;;;;;;13.80;2.83;;;8.00;99.90;;;;;;5114987;28;20030;-73
2024/01/12 11:24:06;;;;;;;10.98;2.53;;;8.00;99.90;;;;;;5115007;28;20051;-74
2024/01/12 11:26:32;;;;;;;12.18;2.50;;;8.10;99.90;;;;;;5114348;28;20028;-74
2024/01/12 11:28:59;;;;;;;14.15;2.33;;;8.20;99.90;;;;;;5114996;28;20035;-71
2024/01/12 11:31:27;;;;;;;0.40;0.40;;;8.30;99.90;;;;;;5114908;28;20385;-74
2024/01/12 11:34:02;;;;;;;11.98;2.20;;;8.50;99.90;;;;;;5114941;28;20093;-72
2024/01/12 11:36:31;;;;;;;9.98;1.80;;;8.50;99.90;;;;;;5111836;28;20134;-71
2024/01/12 11:39:00;;;;;;;15.48;2.40;;;8.60;99.90;;;;;;5114194;28;20026;-72
2024/01/12 11:41:28;;;;;;;4.80;1.67;;;8.60;99.90;;;;;;5114659;28;20023;-71
2024/01/12 11:43:54;;;;;;;13.52;2.08;;;8.60;99.90;;;;;;5114526;28;20031;-71
2024/01/12 11:46:21;;;;;;;12.00;2.55;;;8.60;99.90;;;;;;5113937;28;20097;-73
2024/01/12 11:48:47;;;;;;;9.13;2.17;;;8.50;99.90;;;;;;5113770;28;20461;-70
2024/01/12 11:51:28;;;;;;;8.52;2.00;;;8.40;99.90;;;;;;5114494;28;20051;-73
2024/01/12 11:53:57;;;;;;;14.40;2.28;;;8.30;99.90;;;;;;5112453;28;20023;-74
2024/01/12 11:56:24;;;;;;;7.03;2.10;;;8.20;99.90;;;;;;5114739;27;20036;-72
2024/01/12 11:58:54;;;;;;;10.45;2.17;;;8.20;99.90;;;;;;5115232;27;20431;-71
2024/01/12 12:01:20;;;;;;;0.60;0.60;;;8.20;99.90;;;;;;5114917;28;20073;-71
2024/01/12 12:03:46;;;;;;;0.50;0.50;;;8.10;99.90;;;;;;5114847;28;20027;-74
2024/01/12 12:06:12;;;;;;;0.47;0.47;;;8.00;99.90;;;;;;5113260;28;20051;-73
2024/01/12 12:08:40;;;;;;;0.50;0.50;;;8.00;99.90;;;;;;5114804;28;20027;-72
2024/01/12 12:11:06;;;;;;;11.27;3.70;;;7.90;99.90;;;;;;5114729;28;20043;-73
2024/01/12 12:13:33;;;;;;;0.40;0.40;;;8.00;99.90;;;;;;5114638;28;20019;-71
2024/01/12 12:15:59;;;;;;;0.50;0.50;;;7.90;99.90;;;;;;5114788;28;20016;-73
2024/01/12 12:18:25;;;;;;;0.40;0.40;;;8.10;99.90;;;;;;5114373;28;20080;-74
2024/01/12 12:20:50;;;;;;;5.60;1.73;;;8.30;99.90;;;;;;5114220;28;20024;-72
2024/01/12 12:23:16;;;;;;;5.70;1.40;;;8.90;99.90;;;;;;5114374;28;20027;-73
2024/01/12 12:25:42;;;;;;;5.85;1.38;;;9.80;99.90;;;;;;5114055;28;20031;-72
2024/01/12 12:28:08;;;;;;;2.38;1.00;;;10.10;99.90;;;;;;5113236;28;20039;-74
2024/01/12 12:30:35;;;;;;;4.72;1.05;;;10.20;99.90;;;;;;5114108;28;20039;-73
2024/01/12 12:33:01;;;;;;;9.75;2.75;;;10.10;99.90;;;;;;5114294;27;20026;-74
2024/01/12 12:35:26;;;;;;;6.55;1.77;;;9.80;99.90;;;;;;5114430;28;20036;-74
2024/01/12 12:37:52;;;;;;;5.53;1.90;;;9.70;99.90;;;;;;5114166;28;20092;-74
2024/01/12 12:40:19;;;;;;;5.22;1.52;;;9.50;99.90;;;;;;5114166;28;20019;-74
2024/01/12 12:42:47;;;;;;;8.23;2.13;;;9.30;99.90;;;;;;5113721;28;20046;-75